Altus, OK

10:10 PM CST on January 18, 2018 (GMT -0600)
Altus Municipal

Weather History for KAXS - April, 2013

Change the Weather History Date:

Tuesday, April 16, 2013

  Actual Average (KLTS) Record (KLTS)
Temperature  
Mean Temperature 54 °F -  
Max Temperature 59 °F 73 °F 93 °F (2004)
Min Temperature 49 °F 47 °F 32 °F (1999)
Degree Days  
Heating Degree Days 11    
Growing Degree Days 4 (Base 50)    
Moisture  
Dew Point 44 °F    
Average Humidity 71    
Maximum Humidity 90    
Minimum Humidity 56    
Precipitation  
Precipitation 0.00 in - - ()
Sea Level Pressure  
Sea Level Pressure 29.87 in    
Wind  
Wind Speed 16 mph (NNE)    
Max Wind Speed 26 mph    
Max Gust Speed 34 mph    
Visibility 8 miles    
Events      
Averages and records for this station are not official NWS values.
T = Trace of Precipitation, MM = Missing Value Source: NWS Daily Summary

Daily Weather History Graph

Daily Weather History Graph

Search for Another Location

Airport or City:

Trip Planner

Search our weather history database for the weather conditions in past years. The results will help you decide how hot, cold, wet, or windy it might be!

Date:

Astronomy

Apr. 16, 2013 Rise Set
Actual Time 7:04 AM CDT 8:10 PM CDT
Civil Twilight 6:38 AM CDT 8:36 PM CDT
Nautical Twilight 6:07 AM CDT 9:07 PM CDT
Astronomical Twilight 5:35 AM CDT 9:39 PM CDT
Moon 11:30 AM CDT (4/16) 1:02 AM CDT (4/16)
Length of Visible Light 13h 58m
Length of Day
13h 06m
Waxing Crescent, 33% of the Moon is Illuminated
Apr 16
Waxing Crescent
Apr 18
First Quarter
Apr 25
Full
May 2
Last Quarter
May 9
New

Hourly Weather History & Observations

Time (CDT) Temp. Dew Point Humidity Pressure Visibility Wind Dir Wind Speed Gust Speed Precip Events Conditions
12:15 AM 55.4 °F 40.1 °F 56% 29.75 in 10.0 mi NE 20.7 mph 32.2 mph N/A   Clear
12:35 AM 54.5 °F 40.1 °F 58% 29.75 in 10.0 mi NE 26.5 mph 34.5 mph N/A   Clear
12:55 AM 54.0 °F 40.1 °F 59% 29.75 in 10.0 mi NE 20.7 mph 31.1 mph N/A   Clear
1:15 AM 53.6 °F 39.7 °F 59% 29.74 in 10.0 mi NE 21.9 mph 28.8 mph N/A   Clear
1:35 AM 53.1 °F 39.9 °F 61% 29.74 in 10.0 mi NE 24.2 mph 31.1 mph N/A   Clear
1:55 AM 52.9 °F 40.3 °F 62% 29.73 in 10.0 mi NE 20.7 mph 28.8 mph N/A   Clear
2:15 AM 52.7 °F 41.0 °F 64% 29.74 in 10.0 mi NE 19.6 mph - N/A   Clear
2:35 AM 52.7 °F 41.4 °F 65% 29.73 in 10.0 mi ENE 17.3 mph 21.9 mph N/A   Clear
2:55 AM 52.7 °F 41.9 °F 67% 29.73 in 10.0 mi NE 16.1 mph - N/A   Clear
3:15 AM 52.7 °F 42.8 °F 69% 29.74 in 10.0 mi NE 12.7 mph - N/A   Clear
3:35 AM 53.1 °F 44.1 °F 71% 29.74 in 10.0 mi NE 8.1 mph - N/A   Clear
3:55 AM 52.7 °F 43.9 °F 72% 29.75 in 10.0 mi NE 9.2 mph - N/A   Clear
4:15 AM 52.7 °F 44.6 °F 74% 29.74 in 10.0 mi NE 9.2 mph - N/A   Clear
4:35 AM 51.1 °F 44.2 °F 77% 29.76 in 10.0 mi North 9.2 mph - N/A   Clear
4:55 AM 49.5 °F 43.2 °F 79% 29.78 in 10.0 mi North 11.5 mph - N/A   Clear
5:15 AM 50.7 °F 43.7 °F 77% 29.79 in 10.0 mi NNE 11.5 mph - N/A   Clear
5:35 AM 49.8 °F 43.3 °F 78% 29.80 in 10.0 mi North 6.9 mph - N/A   Clear
5:55 AM 49.1 °F 42.8 °F 79% 29.81 in 10.0 mi North 12.7 mph - N/A   Mostly Cloudy
6:15 AM 50.0 °F 42.1 °F 74% 29.82 in 10.0 mi North 15.0 mph - N/A   Overcast
6:35 AM 50.4 °F 41.7 °F 72% 29.84 in 10.0 mi NNE 17.3 mph - N/A   Mostly Cloudy
6:55 AM 50.9 °F 41.5 °F 70% 29.85 in 10.0 mi NNE 16.1 mph 20.7 mph N/A   Overcast
7:15 AM 52.0 °F 41.2 °F 67% 29.86 in 10.0 mi NNE 15.0 mph - N/A   Overcast
7:35 AM 52.0 °F 40.5 °F 65% 29.87 in 10.0 mi NNE 19.6 mph 25.3 mph N/A   Overcast
7:55 AM 52.0 °F 40.3 °F 64% 29.90 in 10.0 mi NNE 15.0 mph 25.3 mph N/A   Overcast
8:15 AM 52.0 °F 40.5 °F 65% 29.91 in 10.0 mi North 15.0 mph - N/A   Overcast
8:35 AM 52.2 °F 40.3 °F 64% 29.92 in 10.0 mi North 16.1 mph - N/A   Overcast
8:55 AM 52.5 °F 40.6 °F 64% 29.93 in 10.0 mi North 18.4 mph 23.0 mph N/A   Overcast
9:15 AM 52.5 °F 40.5 °F 64% 29.94 in 10.0 mi North 15.0 mph 21.9 mph N/A   Overcast
9:35 AM 52.3 °F 39.9 °F 63% 29.95 in 10.0 mi North 19.6 mph - N/A   Overcast
9:55 AM 52.5 °F 40.1 °F 63% 29.95 in 10.0 mi North 19.6 mph 23.0 mph N/A   Overcast
10:15 AM 53.1 °F 40.6 °F 63% 29.96 in 10.0 mi North 18.4 mph - N/A   Overcast
10:35 AM 53.8 °F 41.2 °F 62% 29.96 in 10.0 mi North 17.3 mph - N/A   Overcast
10:55 AM 54.1 °F 41.5 °F 62% 29.97 in 10.0 mi NNE 17.3 mph - N/A   Overcast
11:15 AM 54.5 °F 41.9 °F 62% 29.97 in 10.0 mi NNE 16.1 mph - N/A   Overcast
11:35 AM 54.9 °F 42.3 °F 63% 29.97 in 10.0 mi North 13.8 mph - N/A   Overcast
11:55 AM 55.8 °F 43.0 °F 62% 29.98 in 10.0 mi NNE 13.8 mph - N/A   Overcast
12:15 PM 55.9 °F 43.7 °F 63% 29.97 in 10.0 mi NNE 15.0 mph - N/A   Overcast
12:35 PM 56.7 °F 44.2 °F 63% 29.97 in 10.0 mi NNE 15.0 mph - N/A   Overcast
12:55 PM 57.2 °F 44.6 °F 63% 29.96 in 10.0 mi NNE 16.1 mph 20.7 mph N/A   Overcast
1:15 PM 57.7 °F 45.3 °F 63% 29.96 in 10.0 mi NNE 15.0 mph - N/A   Overcast
1:35 PM 58.5 °F 45.9 °F 63% 29.95 in 10.0 mi NNE 13.8 mph - N/A   Overcast
1:55 PM 58.3 °F 45.7 °F 63% 29.95 in 10.0 mi NNE 12.7 mph - N/A   Mostly Cloudy
2:15 PM 59.0 °F 46.2 °F 63% 29.94 in 10.0 mi NE 12.7 mph 18.4 mph N/A   Mostly Cloudy
2:35 PM 59.0 °F 46.6 °F 63% 29.94 in 10.0 mi NE 11.5 mph - N/A   Overcast
2:55 PM 59.0 °F 46.9 °F 64% 29.94 in 10.0 mi NNE 12.7 mph - N/A   Overcast
3:15 PM 59.0 °F 47.7 °F 66% 29.93 in 7.0 mi NNE 12.7 mph 17.3 mph N/A   Overcast
3:35 PM 58.1 °F 46.9 °F 66% 29.92 in 7.0 mi NE 15.0 mph - N/A   Overcast
3:55 PM 57.6 °F 47.3 °F 69% 29.93 in 7.0 mi NE 15.0 mph - N/A   Overcast
4:15 PM 57.2 °F 47.5 °F 70% 29.92 in 7.0 mi NE 12.7 mph - N/A   Overcast
4:35 PM 57.6 °F 47.8 °F 70% 29.90 in 7.0 mi NE 16.1 mph - N/A   Overcast
4:55 PM 56.5 °F 47.5 °F 72% 29.90 in 7.0 mi NE 15.0 mph - N/A   Overcast
5:15 PM 57.0 °F 48.0 °F 72% 29.89 in 7.0 mi NE 15.0 mph - N/A   Overcast
5:35 PM 56.3 °F 47.8 °F 73% 29.89 in 7.0 mi NE 12.7 mph - N/A   Overcast
5:55 PM 55.8 °F 47.7 °F 74% 29.89 in 7.0 mi NE 12.7 mph - N/A   Overcast
6:15 PM 55.2 °F 47.5 °F 75% 29.89 in 7.0 mi NE 13.8 mph - N/A   Overcast
6:35 PM 54.9 °F 47.5 °F 76% 29.89 in 7.0 mi NNE 12.7 mph - N/A   Overcast
6:55 PM 54.5 °F 47.5 °F 77% 29.90 in 7.0 mi NNE 13.8 mph - N/A   Overcast
7:15 PM 54.1 °F 47.5 °F 78% 29.90 in 7.0 mi NNE 13.8 mph - N/A   Overcast
7:35 PM 54.0 °F 47.5 °F 79% 29.90 in 7.0 mi NNE 12.7 mph - N/A   Overcast
7:55 PM 53.6 °F 47.5 °F 80% 29.90 in 7.0 mi NE 12.7 mph - N/A   Overcast
8:15 PM 53.1 °F 47.3 °F 81% 29.90 in 5.0 mi NNE 12.7 mph - N/A   Haze
8:35 PM 52.7 °F 47.1 °F 81% 29.88 in 5.0 mi NE 16.1 mph - N/A   Haze
8:55 PM 52.3 °F 47.3 °F 83% 29.88 in 5.0 mi NE 16.1 mph 20.7 mph N/A   Haze
9:15 PM 51.4 °F 46.8 °F 84% 29.88 in 5.0 mi NE 12.7 mph - N/A   Haze
9:35 PM 51.4 °F 47.1 °F 85% 29.88 in 5.0 mi NE 13.8 mph - N/A   Haze
9:55 PM 51.1 °F 46.9 °F 86% 29.88 in 4.0 mi ENE 15.0 mph 21.9 mph N/A   Overcast
10:15 PM 50.9 °F 46.8 °F 86% 29.88 in 5.0 mi NE 15.0 mph 18.4 mph N/A   Overcast
10:35 PM 50.9 °F 47.3 °F 87% 29.88 in 4.0 mi NE 11.5 mph - N/A   Overcast
10:55 PM 50.5 °F 47.3 °F 89% 29.89 in 4.0 mi NE 11.5 mph - N/A   Overcast
11:15 PM 50.5 °F 47.3 °F 89% 29.87 in 4.0 mi NE 8.1 mph - N/A   Overcast
11:35 PM 50.4 °F 47.5 °F 90% 29.87 in 3.0 mi ENE 10.4 mph - N/A   Overcast
11:55 PM 50.2 °F 47.5 °F 90% 29.86 in 2.5 mi NE 10.4 mph - N/A   Overcast